Etusivu
METAR-TAF:

METAR-TAF

Lentoasemat :

Burlington / Mount Vernon, Washington, Yhdysvallat

Leveyspiiri: 48-28-15N, Pituuspiiri: 122-25-15W, korkeus merenpinnasta: 44 m

Tämänhetkinen sää

Tämä raportti tehtiin 18 minuuttia sitten, kello 08.15 UTC
Tuuli 9 kn etelästä puuskistuen 17 kn:hen
Lämpötila 8°C
Kosteus 81%
Ilmanpaine 1012 hPa
Näkyvyys: 16.1 km
Pilvistä 2000 ft:n korkeudessa

METAR: KBVS 220815Z AUTO 17009G17KT 10SM OVC020 08/05 A2988 RMK A01

Aika: 00:33 (08:33 UTC)


TAF: puuttuu

Säähavainnot ja -ennusteet yli 4000 lentoasemalta (METAR- ja TAF-raportit).

Käytössä olevat sääasemat on merkitty karttaan keltaisilla ja punaisilla pisteillä.

Aseta hiiri pisteen päälle nähdäksesi sääaseman nimen.

Klikkaa sitten nähdäksesi säähavainnot ja -ennusteet.

Kartan vaihtaminen: klikkaa mustalla rastilla varustettuja vihreitä pisteitä, niin voit zoomata sisään; viivalla varustettua vihreää pistettä, niin voit zoomata ulos tai vihreitä nuolia, niin pääset viereisille kartoille.


METAR-TAF: